sensor_id;sensor_type;location;lat;lon;timestamp;P1;durP1;ratioP1;P2;durP2;ratioP2
56810;SDS011;42691;47.234;27.494;2022-08-19T00:01:18;21.85;;;9.05;;
56810;SDS011;42691;47.234;27.494;2022-08-19T00:03:43;18.10;;;9.30;;
56810;SDS011;42691;47.234;27.494;2022-08-19T00:06:09;15.65;;;12.20;;
56810;SDS011;42691;47.234;27.494;2022-08-19T00:08:35;14.02;;;9.60;;
56810;SDS011;42691;47.234;27.494;2022-08-19T00:11:00;13.68;;;10.70;;
56810;SDS011;42691;47.234;27.494;2022-08-19T00:13:26;15.43;;;9.23;;
56810;SDS011;42691;47.234;27.494;2022-08-19T00:15:53;13.80;;;9.50;;
56810;SDS011;42691;47.234;27.494;2022-08-19T00:18:19;15.45;;;11.13;;
56810;SDS011;42691;47.234;27.494;2022-08-19T00:20:45;9.98;;;8.25;;
56810;SDS011;42691;47.234;27.494;2022-08-19T00:23:10;13.85;;;9.52;;
56810;SDS011;42691;47.234;27.494;2022-08-19T00:25:36;15.80;;;10.20;;
56810;SDS011;42691;47.234;27.494;2022-08-19T00:28:01;19.40;;;9.45;;
56810;SDS011;42691;47.234;27.494;2022-08-19T00:30:27;12.48;;;9.80;;
56810;SDS011;42691;47.234;27.494;2022-08-19T00:32:53;20.67;;;9.48;;
56810;SDS011;42691;47.234;27.494;2022-08-19T00:35:21;9.30;;;7.40;;
56810;SDS011;42691;47.234;27.494;2022-08-19T00:37:48;13.57;;;10.40;;
56810;SDS011;42691;47.234;27.494;2022-08-19T00:40:14;21.70;;;11.10;;
56810;SDS011;42691;47.234;27.494;2022-08-19T00:42:40;19.98;;;9.60;;
56810;SDS011;42691;47.234;27.494;2022-08-19T00:45:09;15.32;;;10.10;;
56810;SDS011;42691;47.234;27.494;2022-08-19T00:47:37;12.63;;;8.52;;
56810;SDS011;42691;47.234;27.494;2022-08-19T00:50:03;15.27;;;8.15;;
56810;SDS011;42691;47.234;27.494;2022-08-19T00:52:33;10.07;;;7.57;;
56810;SDS011;42691;47.234;27.494;2022-08-19T00:55:04;15.10;;;11.05;;
56810;SDS011;42691;47.234;27.494;2022-08-19T00:57:34;13.43;;;9.90;;
56810;SDS011;42691;47.234;27.494;2022-08-19T01:00:11;14.88;;;9.45;;
56810;SDS011;42691;47.234;27.494;2022-08-19T01:02:41;12.18;;;8.63;;
56810;SDS011;42691;47.234;27.494;2022-08-19T01:05:13;11.60;;;8.70;;
56810;SDS011;42691;47.234;27.494;2022-08-19T01:07:43;22.13;;;9.93;;
56810;SDS011;42691;47.234;27.494;2022-08-19T01:10:11;14.75;;;8.82;;
56810;SDS011;42691;47.234;27.494;2022-08-19T01:12:39;11.93;;;8.88;;
56810;SDS011;42691;47.234;27.494;2022-08-19T01:15:06;11.98;;;9.27;;
56810;SDS011;42691;47.234;27.494;2022-08-19T01:17:34;12.10;;;8.93;;
56810;SDS011;42691;47.234;27.494;2022-08-19T01:20:03;16.58;;;9.38;;
56810;SDS011;42691;47.234;27.494;2022-08-19T01:22:34;11.57;;;9.93;;
56810;SDS011;42691;47.234;27.494;2022-08-19T01:25:04;14.18;;;9.55;;
56810;SDS011;42691;47.234;27.494;2022-08-19T01:27:38;13.80;;;9.82;;
56810;SDS011;42691;47.234;27.494;2022-08-19T01:30:11;13.05;;;9.55;;
56810;SDS011;42691;47.234;27.494;2022-08-19T01:32:38;14.20;;;12.75;;
56810;SDS011;42691;47.234;27.494;2022-08-19T01:35:04;19.70;;;10.02;;
56810;SDS011;42691;47.234;27.494;2022-08-19T01:37:30;13.98;;;9.13;;
56810;SDS011;42691;47.234;27.494;2022-08-19T01:40:10;24.27;;;11.15;;
56810;SDS011;42691;47.234;27.494;2022-08-19T01:42:36;14.02;;;9.80;;
56810;SDS011;42691;47.234;27.494;2022-08-19T01:45:02;18.10;;;10.07;;
56810;SDS011;42691;47.234;27.494;2022-08-19T01:47:29;13.25;;;7.68;;
56810;SDS011;42691;47.234;27.494;2022-08-19T01:49:54;17.38;;;11.13;;
56810;SDS011;42691;47.234;27.494;2022-08-19T01:52:20;14.65;;;9.73;;
56810;SDS011;42691;47.234;27.494;2022-08-19T01:54:45;12.55;;;9.52;;
56810;SDS011;42691;47.234;27.494;2022-08-19T01:57:12;15.40;;;9.70;;
56810;SDS011;42691;47.234;27.494;2022-08-19T01:59:39;12.82;;;9.57;;
56810;SDS011;42691;47.234;27.494;2022-08-19T02:02:07;16.48;;;9.30;;
56810;SDS011;42691;47.234;27.494;2022-08-19T02:04:33;14.38;;;11.13;;
56810;SDS011;42691;47.234;27.494;2022-08-19T02:06:59;17.60;;;9.23;;
56810;SDS011;42691;47.234;27.494;2022-08-19T02:09:25;13.95;;;10.55;;
56810;SDS011;42691;47.234;27.494;2022-08-19T02:11:51;15.23;;;9.15;;
56810;SDS011;42691;47.234;27.494;2022-08-19T02:14:16;21.23;;;9.50;;
56810;SDS011;42691;47.234;27.494;2022-08-19T02:16:41;15.90;;;10.35;;
56810;SDS011;42691;47.234;27.494;2022-08-19T02:19:07;15.70;;;9.50;;
56810;SDS011;42691;47.234;27.494;2022-08-19T02:21:33;15.50;;;11.00;;
56810;SDS011;42691;47.234;27.494;2022-08-19T02:23:59;12.13;;;10.45;;
56810;SDS011;42691;47.234;27.494;2022-08-19T02:26:25;19.70;;;11.05;;
56810;SDS011;42691;47.234;27.494;2022-08-19T02:28:54;25.42;;;10.55;;
56810;SDS011;42691;47.234;27.494;2022-08-19T02:31:20;14.05;;;8.68;;
56810;SDS011;42691;47.234;27.494;2022-08-19T02:33:47;16.02;;;11.10;;
56810;SDS011;42691;47.234;27.494;2022-08-19T02:36:14;13.18;;;9.85;;
56810;SDS011;42691;47.234;27.494;2022-08-19T02:38:41;16.40;;;10.55;;
56810;SDS011;42691;47.234;27.494;2022-08-19T02:41:10;11.45;;;8.18;;
56810;SDS011;42691;47.234;27.494;2022-08-19T02:43:38;10.20;;;8.40;;
56810;SDS011;42691;47.234;27.494;2022-08-19T02:46:22;17.08;;;10.43;;
56810;SDS011;42691;47.234;27.494;2022-08-19T02:48:52;19.42;;;12.27;;
56810;SDS011;42691;47.234;27.494;2022-08-19T02:51:29;18.85;;;10.63;;
56810;SDS011;42691;47.234;27.494;2022-08-19T02:53:56;17.20;;;12.73;;
56810;SDS011;42691;47.234;27.494;2022-08-19T02:56:23;31.17;;;11.93;;
56810;SDS011;42691;47.234;27.494;2022-08-19T02:58:52;14.82;;;10.65;;
56810;SDS011;42691;47.234;27.494;2022-08-19T03:01:20;12.48;;;8.68;;
56810;SDS011;42691;47.234;27.494;2022-08-19T03:03:49;16.85;;;10.90;;
56810;SDS011;42691;47.234;27.494;2022-08-19T03:06:15;15.25;;;10.90;;
56810;SDS011;42691;47.234;27.494;2022-08-19T03:08:42;27.13;;;10.52;;
56810;SDS011;42691;47.234;27.494;2022-08-19T03:11:16;13.15;;;10.45;;
56810;SDS011;42691;47.234;27.494;2022-08-19T03:13:45;12.35;;;10.25;;
56810;SDS011;42691;47.234;27.494;2022-08-19T03:16:12;17.92;;;10.25;;
56810;SDS011;42691;47.234;27.494;2022-08-19T03:18:37;12.90;;;11.55;;
56810;SDS011;42691;47.234;27.494;2022-08-19T03:21:03;16.63;;;9.95;;
56810;SDS011;42691;47.234;27.494;2022-08-19T03:23:29;17.33;;;8.80;;
56810;SDS011;42691;47.234;27.494;2022-08-19T03:25:55;13.55;;;10.35;;
56810;SDS011;42691;47.234;27.494;2022-08-19T03:28:20;16.10;;;11.75;;
56810;SDS011;42691;47.234;27.494;2022-08-19T03:30:56;15.75;;;9.30;;
56810;SDS011;42691;47.234;27.494;2022-08-19T03:33:24;20.85;;;12.23;;
56810;SDS011;42691;47.234;27.494;2022-08-19T03:38:50;19.15;;;11.65;;
56810;SDS011;42691;47.234;27.494;2022-08-19T03:41:29;16.23;;;9.10;;
56810;SDS011;42691;47.234;27.494;2022-08-19T03:43:57;16.10;;;11.75;;
56810;SDS011;42691;47.234;27.494;2022-08-19T03:46:26;12.38;;;10.18;;
56810;SDS011;42691;47.234;27.494;2022-08-19T03:48:54;18.80;;;9.68;;
56810;SDS011;42691;47.234;27.494;2022-08-19T03:51:25;14.63;;;9.45;;
56810;SDS011;42691;47.234;27.494;2022-08-19T03:54:00;15.43;;;11.30;;
56810;SDS011;42691;47.234;27.494;2022-08-19T03:56:28;15.25;;;12.00;;
56810;SDS011;42691;47.234;27.494;2022-08-19T03:58:57;20.15;;;9.80;;
56810;SDS011;42691;47.234;27.494;2022-08-19T04:01:25;20.95;;;9.82;;
56810;SDS011;42691;47.234;27.494;2022-08-19T04:03:52;13.90;;;10.57;;
56810;SDS011;42691;47.234;27.494;2022-08-19T04:06:22;14.93;;;9.55;;
56810;SDS011;42691;47.234;27.494;2022-08-19T04:08:49;13.55;;;9.35;;
56810;SDS011;42691;47.234;27.494;2022-08-19T04:11:18;14.02;;;10.27;;
56810;SDS011;42691;47.234;27.494;2022-08-19T04:13:47;14.73;;;10.15;;
56810;SDS011;42691;47.234;27.494;2022-08-19T04:16:16;10.95;;;9.20;;
56810;SDS011;42691;47.234;27.494;2022-08-19T04:18:42;13.63;;;10.35;;
56810;SDS011;42691;47.234;27.494;2022-08-19T04:21:08;14.38;;;10.18;;
56810;SDS011;42691;47.234;27.494;2022-08-19T04:23:39;14.77;;;9.15;;
56810;SDS011;42691;47.234;27.494;2022-08-19T04:26:05;18.85;;;10.20;;
56810;SDS011;42691;47.234;27.494;2022-08-19T04:28:30;15.27;;;12.98;;
56810;SDS011;42691;47.234;27.494;2022-08-19T04:30:56;14.80;;;10.77;;
56810;SDS011;42691;47.234;27.494;2022-08-19T04:33:24;16.23;;;9.68;;
56810;SDS011;42691;47.234;27.494;2022-08-19T04:35:51;14.77;;;9.95;;
56810;SDS011;42691;47.234;27.494;2022-08-19T04:38:18;12.38;;;10.73;;
56810;SDS011;42691;47.234;27.494;2022-08-19T04:40:48;15.15;;;10.35;;
56810;SDS011;42691;47.234;27.494;2022-08-19T04:43:34;15.75;;;11.82;;
56810;SDS011;42691;47.234;27.494;2022-08-19T04:46:08;14.23;;;10.80;;
56810;SDS011;42691;47.234;27.494;2022-08-19T04:48:35;13.80;;;11.35;;
56810;SDS011;42691;47.234;27.494;2022-08-19T04:51:05;14.40;;;11.07;;
56810;SDS011;42691;47.234;27.494;2022-08-19T04:53:32;12.85;;;9.00;;
56810;SDS011;42691;47.234;27.494;2022-08-19T04:55:59;17.63;;;11.23;;
56810;SDS011;42691;47.234;27.494;2022-08-19T04:58:31;18.55;;;10.85;;
56810;SDS011;42691;47.234;27.494;2022-08-19T05:00:57;18.88;;;10.57;;
56810;SDS011;42691;47.234;27.494;2022-08-19T05:03:25;15.68;;;11.57;;
56810;SDS011;42691;47.234;27.494;2022-08-19T05:05:51;15.68;;;12.68;;
56810;SDS011;42691;47.234;27.494;2022-08-19T05:08:18;16.20;;;10.05;;
56810;SDS011;42691;47.234;27.494;2022-08-19T05:10:49;15.25;;;11.52;;
56810;SDS011;42691;47.234;27.494;2022-08-19T05:13:17;17.65;;;10.88;;
56810;SDS011;42691;47.234;27.494;2022-08-19T05:15:44;20.13;;;9.65;;
56810;SDS011;42691;47.234;27.494;2022-08-19T05:18:18;11.27;;;9.55;;
56810;SDS011;42691;47.234;27.494;2022-08-19T05:21:05;12.90;;;9.65;;
56810;SDS011;42691;47.234;27.494;2022-08-19T05:23:55;17.08;;;10.65;;
56810;SDS011;42691;47.234;27.494;2022-08-19T05:26:20;10.25;;;8.93;;
56810;SDS011;42691;47.234;27.494;2022-08-19T05:28:47;16.13;;;10.88;;
56810;SDS011;42691;47.234;27.494;2022-08-19T05:31:13;19.08;;;10.07;;
56810;SDS011;42691;47.234;27.494;2022-08-19T05:33:38;11.48;;;8.55;;
56810;SDS011;42691;47.234;27.494;2022-08-19T05:36:05;13.30;;;9.20;;
56810;SDS011;42691;47.234;27.494;2022-08-19T05:38:32;21.70;;;13.25;;
56810;SDS011;42691;47.234;27.494;2022-08-19T05:41:00;13.70;;;9.70;;
56810;SDS011;42691;47.234;27.494;2022-08-19T05:43:36;16.13;;;11.32;;
56810;SDS011;42691;47.234;27.494;2022-08-19T05:46:02;18.38;;;9.75;;
56810;SDS011;42691;47.234;27.494;2022-08-19T05:48:32;13.73;;;8.60;;
56810;SDS011;42691;47.234;27.494;2022-08-19T05:51:02;11.50;;;9.48;;
56810;SDS011;42691;47.234;27.494;2022-08-19T05:53:34;10.55;;;8.38;;
56810;SDS011;42691;47.234;27.494;2022-08-19T05:56:11;12.18;;;8.48;;
56810;SDS011;42691;47.234;27.494;2022-08-19T05:58:39;15.55;;;8.10;;
56810;SDS011;42691;47.234;27.494;2022-08-19T06:01:09;13.60;;;9.23;;
56810;SDS011;42691;47.234;27.494;2022-08-19T06:03:36;14.18;;;9.75;;
56810;SDS011;42691;47.234;27.494;2022-08-19T06:06:03;11.57;;;10.00;;
56810;SDS011;42691;47.234;27.494;2022-08-19T06:08:29;12.90;;;10.32;;
56810;SDS011;42691;47.234;27.494;2022-08-19T06:10:55;15.27;;;10.93;;
56810;SDS011;42691;47.234;27.494;2022-08-19T06:13:20;15.23;;;8.55;;
56810;SDS011;42691;47.234;27.494;2022-08-19T06:15:48;17.00;;;10.15;;
56810;SDS011;42691;47.234;27.494;2022-08-19T06:18:14;19.27;;;10.15;;
56810;SDS011;42691;47.234;27.494;2022-08-19T06:20:41;13.77;;;10.13;;
56810;SDS011;42691;47.234;27.494;2022-08-19T06:23:07;15.57;;;8.93;;
56810;SDS011;42691;47.234;27.494;2022-08-19T06:25:34;14.10;;;9.57;;
56810;SDS011;42691;47.234;27.494;2022-08-19T06:28:01;17.33;;;10.93;;
56810;SDS011;42691;47.234;27.494;2022-08-19T06:30:27;18.30;;;9.63;;
56810;SDS011;42691;47.234;27.494;2022-08-19T06:32:53;13.80;;;8.68;;
56810;SDS011;42691;47.234;27.494;2022-08-19T06:35:19;16.73;;;9.40;;
56810;SDS011;42691;47.234;27.494;2022-08-19T06:37:44;11.23;;;9.98;;
56810;SDS011;42691;47.234;27.494;2022-08-19T06:40:10;18.77;;;11.85;;
56810;SDS011;42691;47.234;27.494;2022-08-19T06:42:37;11.57;;;8.20;;
56810;SDS011;42691;47.234;27.494;2022-08-19T06:45:04;16.10;;;10.43;;
56810;SDS011;42691;47.234;27.494;2022-08-19T06:47:33;13.43;;;9.60;;
56810;SDS011;42691;47.234;27.494;2022-08-19T06:49:59;11.07;;;9.68;;
56810;SDS011;42691;47.234;27.494;2022-08-19T06:52:29;14.07;;;9.10;;
56810;SDS011;42691;47.234;27.494;2022-08-19T06:54:55;15.18;;;8.88;;
56810;SDS011;42691;47.234;27.494;2022-08-19T06:57:21;17.17;;;8.32;;
56810;SDS011;42691;47.234;27.494;2022-08-19T06:59:47;15.88;;;7.75;;
56810;SDS011;42691;47.234;27.494;2022-08-19T07:02:13;19.45;;;10.55;;
56810;SDS011;42691;47.234;27.494;2022-08-19T07:04:38;10.18;;;7.18;;
56810;SDS011;42691;47.234;27.494;2022-08-19T07:07:08;15.50;;;9.90;;
56810;SDS011;42691;47.234;27.494;2022-08-19T07:09:37;16.27;;;10.60;;
56810;SDS011;42691;47.234;27.494;2022-08-19T07:12:05;30.90;;;7.82;;
56810;SDS011;42691;47.234;27.494;2022-08-19T07:14:32;11.50;;;9.60;;
56810;SDS011;42691;47.234;27.494;2022-08-19T07:17:02;16.10;;;8.55;;
56810;SDS011;42691;47.234;27.494;2022-08-19T07:19:28;17.92;;;7.82;;
56810;SDS011;42691;47.234;27.494;2022-08-19T07:21:54;17.90;;;7.35;;
56810;SDS011;42691;47.234;27.494;2022-08-19T07:24:21;12.25;;;8.05;;
56810;SDS011;42691;47.234;27.494;2022-08-19T07:26:51;29.25;;;8.27;;
56810;SDS011;42691;47.234;27.494;2022-08-19T07:29:20;12.98;;;7.68;;
56810;SDS011;42691;47.234;27.494;2022-08-19T07:31:48;11.13;;;8.32;;
56810;SDS011;42691;47.234;27.494;2022-08-19T07:34:17;10.00;;;7.40;;
56810;SDS011;42691;47.234;27.494;2022-08-19T07:36:43;28.80;;;14.00;;
56810;SDS011;42691;47.234;27.494;2022-08-19T07:39:10;13.68;;;8.65;;
56810;SDS011;42691;47.234;27.494;2022-08-19T07:41:38;18.25;;;8.27;;
56810;SDS011;42691;47.234;27.494;2022-08-19T07:44:04;13.13;;;7.70;;
56810;SDS011;42691;47.234;27.494;2022-08-19T07:46:35;15.40;;;7.32;;
56810;SDS011;42691;47.234;27.494;2022-08-19T07:49:03;16.85;;;9.35;;
56810;SDS011;42691;47.234;27.494;2022-08-19T07:51:30;11.75;;;7.78;;
56810;SDS011;42691;47.234;27.494;2022-08-19T07:53:56;10.13;;;7.50;;
56810;SDS011;42691;47.234;27.494;2022-08-19T07:56:22;14.60;;;8.98;;
56810;SDS011;42691;47.234;27.494;2022-08-19T07:58:49;10.55;;;7.40;;
56810;SDS011;42691;47.234;27.494;2022-08-19T08:01:23;10.02;;;7.35;;
56810;SDS011;42691;47.234;27.494;2022-08-19T08:03:52;13.50;;;9.27;;
56810;SDS011;42691;47.234;27.494;2022-08-19T08:06:37;10.55;;;7.28;;
56810;SDS011;42691;47.234;27.494;2022-08-19T08:09:29;9.80;;;6.30;;
56810;SDS011;42691;47.234;27.494;2022-08-19T08:12:02;11.48;;;8.82;;
56810;SDS011;42691;47.234;27.494;2022-08-19T08:14:39;15.35;;;8.05;;
56810;SDS011;42691;47.234;27.494;2022-08-19T08:17:08;14.02;;;7.70;;
56810;SDS011;42691;47.234;27.494;2022-08-19T08:19:34;11.57;;;7.20;;
56810;SDS011;42691;47.234;27.494;2022-08-19T08:22:00;17.27;;;9.15;;
56810;SDS011;42691;47.234;27.494;2022-08-19T08:24:28;18.15;;;9.27;;
56810;SDS011;42691;47.234;27.494;2022-08-19T08:26:56;11.32;;;7.68;;
56810;SDS011;42691;47.234;27.494;2022-08-19T08:29:22;16.42;;;9.85;;
56810;SDS011;42691;47.234;27.494;2022-08-19T08:31:48;10.65;;;6.90;;
56810;SDS011;42691;47.234;27.494;2022-08-19T08:34:14;10.40;;;6.50;;
56810;SDS011;42691;47.234;27.494;2022-08-19T08:36:40;13.32;;;6.88;;
56810;SDS011;42691;47.234;27.494;2022-08-19T08:39:10;11.45;;;7.65;;
56810;SDS011;42691;47.234;27.494;2022-08-19T08:41:44;17.00;;;7.30;;
56810;SDS011;42691;47.234;27.494;2022-08-19T08:44:20;15.52;;;7.22;;
56810;SDS011;42691;47.234;27.494;2022-08-19T08:46:52;11.90;;;7.07;;
56810;SDS011;42691;47.234;27.494;2022-08-19T08:49:25;9.25;;;6.63;;
56810;SDS011;42691;47.234;27.494;2022-08-19T08:52:00;11.43;;;7.22;;
56810;SDS011;42691;47.234;27.494;2022-08-19T08:54:32;10.75;;;6.68;;
56810;SDS011;42691;47.234;27.494;2022-08-19T08:57:13;11.23;;;5.78;;
56810;SDS011;42691;47.234;27.494;2022-08-19T08:59:43;16.65;;;6.22;;
56810;SDS011;42691;47.234;27.494;2022-08-19T09:02:16;8.55;;;6.28;;
56810;SDS011;42691;47.234;27.494;2022-08-19T09:04:45;14.63;;;5.10;;
56810;SDS011;42691;47.234;27.494;2022-08-19T09:09:49;9.75;;;6.82;;
56810;SDS011;42691;47.234;27.494;2022-08-19T09:17:31;11.40;;;5.55;;
56810;SDS011;42691;47.234;27.494;2022-08-19T09:22:39;6.93;;;4.50;;
56810;SDS011;42691;47.234;27.494;2022-08-19T09:25:09;12.27;;;5.05;;
56810;SDS011;42691;47.234;27.494;2022-08-19T09:27:37;9.55;;;4.72;;
56810;SDS011;42691;47.234;27.494;2022-08-19T09:30:05;12.15;;;6.35;;
56810;SDS011;42691;47.234;27.494;2022-08-19T09:32:33;13.07;;;5.97;;
56810;SDS011;42691;47.234;27.494;2022-08-19T09:34:59;7.68;;;4.95;;
56810;SDS011;42691;47.234;27.494;2022-08-19T09:37:25;10.68;;;5.13;;
56810;SDS011;42691;47.234;27.494;2022-08-19T09:39:51;8.95;;;4.95;;
56810;SDS011;42691;47.234;27.494;2022-08-19T09:42:17;10.43;;;6.20;;
56810;SDS011;42691;47.234;27.494;2022-08-19T09:44:43;9.35;;;4.80;;
56810;SDS011;42691;47.234;27.494;2022-08-19T09:47:10;8.85;;;5.07;;
56810;SDS011;42691;47.234;27.494;2022-08-19T09:49:37;10.98;;;5.05;;
56810;SDS011;42691;47.234;27.494;2022-08-19T09:52:04;8.57;;;4.28;;
56810;SDS011;42691;47.234;27.494;2022-08-19T09:54:32;11.23;;;4.13;;
56810;SDS011;42691;47.234;27.494;2022-08-19T09:56:58;7.28;;;3.83;;
56810;SDS011;42691;47.234;27.494;2022-08-19T09:59:28;13.35;;;5.70;;
56810;SDS011;42691;47.234;27.494;2022-08-19T10:01:53;7.88;;;5.63;;
56810;SDS011;42691;47.234;27.494;2022-08-19T10:04:19;9.05;;;5.28;;
56810;SDS011;42691;47.234;27.494;2022-08-19T10:06:46;6.80;;;4.47;;
56810;SDS011;42691;47.234;27.494;2022-08-19T10:09:13;9.40;;;5.45;;
56810;SDS011;42691;47.234;27.494;2022-08-19T10:11:41;10.77;;;5.40;;
56810;SDS011;42691;47.234;27.494;2022-08-19T10:14:08;11.00;;;4.50;;
56810;SDS011;42691;47.234;27.494;2022-08-19T10:16:35;8.70;;;5.40;;
56810;SDS011;42691;47.234;27.494;2022-08-19T10:19:03;14.52;;;5.85;;
56810;SDS011;42691;47.234;27.494;2022-08-19T10:21:29;10.30;;;6.00;;
56810;SDS011;42691;47.234;27.494;2022-08-19T10:23:57;11.35;;;5.55;;
56810;SDS011;42691;47.234;27.494;2022-08-19T10:26:26;6.20;;;5.25;;
56810;SDS011;42691;47.234;27.494;2022-08-19T10:28:53;5.15;;;4.10;;
56810;SDS011;42691;47.234;27.494;2022-08-19T10:31:21;8.90;;;4.38;;
56810;SDS011;42691;47.234;27.494;2022-08-19T10:33:48;7.88;;;4.95;;
56810;SDS011;42691;47.234;27.494;2022-08-19T10:36:17;7.97;;;5.00;;
56810;SDS011;42691;47.234;27.494;2022-08-19T10:38:45;7.78;;;3.80;;
56810;SDS011;42691;47.234;27.494;2022-08-19T10:41:15;9.43;;;4.35;;
56810;SDS011;42691;47.234;27.494;2022-08-19T10:43:42;7.75;;;4.85;;
56810;SDS011;42691;47.234;27.494;2022-08-19T10:46:10;7.18;;;4.00;;
56810;SDS011;42691;47.234;27.494;2022-08-19T10:48:38;6.15;;;3.88;;
56810;SDS011;42691;47.234;27.494;2022-08-19T10:51:04;5.75;;;3.70;;
56810;SDS011;42691;47.234;27.494;2022-08-19T10:53:49;14.02;;;4.80;;
56810;SDS011;42691;47.234;27.494;2022-08-19T10:56:16;8.43;;;4.28;;
56810;SDS011;42691;47.234;27.494;2022-08-19T10:59:00;9.02;;;4.40;;
56810;SDS011;42691;47.234;27.494;2022-08-19T11:01:28;6.80;;;4.13;;
56810;SDS011;42691;47.234;27.494;2022-08-19T11:03:56;11.13;;;4.43;;
56810;SDS011;42691;47.234;27.494;2022-08-19T11:06:22;9.65;;;4.18;;
56810;SDS011;42691;47.234;27.494;2022-08-19T11:08:50;6.30;;;3.05;;
56810;SDS011;42691;47.234;27.494;2022-08-19T11:11:16;6.57;;;3.85;;
56810;SDS011;42691;47.234;27.494;2022-08-19T11:13:42;7.53;;;4.35;;
56810;SDS011;42691;47.234;27.494;2022-08-19T11:18:35;5.97;;;4.95;;
56810;SDS011;42691;47.234;27.494;2022-08-19T11:21:06;14.07;;;6.00;;
56810;SDS011;42691;47.234;27.494;2022-08-19T11:23:44;9.20;;;4.05;;
56810;SDS011;42691;47.234;27.494;2022-08-19T11:26:10;9.20;;;3.95;;
56810;SDS011;42691;47.234;27.494;2022-08-19T11:28:36;17.48;;;7.05;;
56810;SDS011;42691;47.234;27.494;2022-08-19T11:31:03;7.75;;;4.10;;
56810;SDS011;42691;47.234;27.494;2022-08-19T11:33:32;8.05;;;4.75;;
56810;SDS011;42691;47.234;27.494;2022-08-19T11:35:58;8.55;;;4.28;;
56810;SDS011;42691;47.234;27.494;2022-08-19T11:38:25;8.98;;;4.43;;
56810;SDS011;42691;47.234;27.494;2022-08-19T11:40:55;8.60;;;3.70;;
56810;SDS011;42691;47.234;27.494;2022-08-19T11:43:22;9.27;;;5.00;;
56810;SDS011;42691;47.234;27.494;2022-08-19T11:45:47;13.15;;;2.85;;
56810;SDS011;42691;47.234;27.494;2022-08-19T11:48:13;7.03;;;3.60;;
56810;SDS011;42691;47.234;27.494;2022-08-19T11:50:39;19.08;;;6.63;;
56810;SDS011;42691;47.234;27.494;2022-08-19T11:53:07;9.30;;;4.05;;
56810;SDS011;42691;47.234;27.494;2022-08-19T11:55:32;7.38;;;3.42;;
56810;SDS011;42691;47.234;27.494;2022-08-19T11:58:03;10.50;;;3.58;;
56810;SDS011;42691;47.234;27.494;2022-08-19T12:00:31;10.20;;;4.55;;
56810;SDS011;42691;47.234;27.494;2022-08-19T12:02:59;10.73;;;5.05;;
56810;SDS011;42691;47.234;27.494;2022-08-19T12:05:24;7.93;;;3.88;;
56810;SDS011;42691;47.234;27.494;2022-08-19T12:07:50;10.15;;;4.25;;
56810;SDS011;42691;47.234;27.494;2022-08-19T12:10:15;11.77;;;4.65;;
56810;SDS011;42691;47.234;27.494;2022-08-19T12:12:41;10.55;;;3.72;;
56810;SDS011;42691;47.234;27.494;2022-08-19T12:15:08;9.15;;;4.13;;
56810;SDS011;42691;47.234;27.494;2022-08-19T12:17:35;8.80;;;3.20;;
56810;SDS011;42691;47.234;27.494;2022-08-19T12:20:01;10.75;;;3.13;;
56810;SDS011;42691;47.234;27.494;2022-08-19T12:22:28;9.88;;;4.63;;
56810;SDS011;42691;47.234;27.494;2022-08-19T12:24:54;9.55;;;3.97;;
56810;SDS011;42691;47.234;27.494;2022-08-19T12:27:20;8.65;;;3.70;;
56810;SDS011;42691;47.234;27.494;2022-08-19T12:29:45;11.43;;;4.03;;
56810;SDS011;42691;47.234;27.494;2022-08-19T12:32:11;13.75;;;5.57;;
56810;SDS011;42691;47.234;27.494;2022-08-19T12:34:36;11.40;;;5.72;;
56810;SDS011;42691;47.234;27.494;2022-08-19T12:37:03;6.93;;;3.63;;
56810;SDS011;42691;47.234;27.494;2022-08-19T12:39:30;6.85;;;3.53;;
56810;SDS011;42691;47.234;27.494;2022-08-19T12:41:58;8.88;;;3.47;;
56810;SDS011;42691;47.234;27.494;2022-08-19T12:44:24;10.20;;;4.43;;
56810;SDS011;42691;47.234;27.494;2022-08-19T12:46:49;11.63;;;3.78;;
56810;SDS011;42691;47.234;27.494;2022-08-19T12:49:15;9.85;;;3.28;;
56810;SDS011;42691;47.234;27.494;2022-08-19T12:51:41;7.43;;;4.05;;
56810;SDS011;42691;47.234;27.494;2022-08-19T12:54:06;11.50;;;4.00;;
56810;SDS011;42691;47.234;27.494;2022-08-19T12:56:32;11.50;;;3.95;;
56810;SDS011;42691;47.234;27.494;2022-08-19T12:59:00;7.65;;;3.28;;
56810;SDS011;42691;47.234;27.494;2022-08-19T13:01:27;8.30;;;3.72;;
56810;SDS011;42691;47.234;27.494;2022-08-19T13:03:57;19.55;;;4.13;;
56810;SDS011;42691;47.234;27.494;2022-08-19T13:06:23;6.55;;;5.22;;
56810;SDS011;42691;47.234;27.494;2022-08-19T13:08:48;8.77;;;3.38;;
56810;SDS011;42691;47.234;27.494;2022-08-19T13:11:15;10.95;;;4.38;;
56810;SDS011;42691;47.234;27.494;2022-08-19T13:13:43;13.98;;;3.63;;
56810;SDS011;42691;47.234;27.494;2022-08-19T13:16:11;8.73;;;3.40;;
56810;SDS011;42691;47.234;27.494;2022-08-19T13:18:37;6.07;;;2.95;;
56810;SDS011;42691;47.234;27.494;2022-08-19T13:21:05;9.60;;;4.90;;
56810;SDS011;42691;47.234;27.494;2022-08-19T13:23:32;10.13;;;4.95;;
56810;SDS011;42691;47.234;27.494;2022-08-19T13:25:59;7.28;;;3.92;;
56810;SDS011;42691;47.234;27.494;2022-08-19T13:28:27;11.32;;;3.60;;
56810;SDS011;42691;47.234;27.494;2022-08-19T13:31:17;20.17;;;4.65;;
56810;SDS011;42691;47.234;27.494;2022-08-19T13:34:02;7.40;;;3.20;;
56810;SDS011;42691;47.234;27.494;2022-08-19T13:36:28;6.63;;;4.57;;
56810;SDS011;42691;47.234;27.494;2022-08-19T13:38:54;8.82;;;4.32;;
56810;SDS011;42691;47.234;27.494;2022-08-19T13:41:19;7.07;;;4.43;;
56810;SDS011;42691;47.234;27.494;2022-08-19T13:43:45;9.15;;;4.18;;
56810;SDS011;42691;47.234;27.494;2022-08-19T13:46:11;10.93;;;4.00;;
56810;SDS011;42691;47.234;27.494;2022-08-19T13:48:39;6.05;;;3.17;;
56810;SDS011;42691;47.234;27.494;2022-08-19T13:51:06;12.30;;;3.63;;
56810;SDS011;42691;47.234;27.494;2022-08-19T13:53:35;8.13;;;4.70;;
56810;SDS011;42691;47.234;27.494;2022-08-19T13:56:06;5.78;;;3.45;;
56810;SDS011;42691;47.234;27.494;2022-08-19T13:58:33;6.35;;;3.13;;
56810;SDS011;42691;47.234;27.494;2022-08-19T14:00:59;18.40;;;5.13;;
56810;SDS011;42691;47.234;27.494;2022-08-19T14:03:25;13.55;;;3.75;;
56810;SDS011;42691;47.234;27.494;2022-08-19T14:05:51;8.23;;;4.35;;
56810;SDS011;42691;47.234;27.494;2022-08-19T14:08:17;21.33;;;4.07;;
56810;SDS011;42691;47.234;27.494;2022-08-19T14:10:43;9.25;;;3.42;;
56810;SDS011;42691;47.234;27.494;2022-08-19T14:13:09;5.65;;;3.78;;
56810;SDS011;42691;47.234;27.494;2022-08-19T14:15:35;8.65;;;3.33;;
56810;SDS011;42691;47.234;27.494;2022-08-19T14:18:02;7.32;;;3.25;;
56810;SDS011;42691;47.234;27.494;2022-08-19T14:20:28;8.23;;;3.38;;
56810;SDS011;42691;47.234;27.494;2022-08-19T14:22:53;8.18;;;3.50;;
56810;SDS011;42691;47.234;27.494;2022-08-19T14:25:21;6.55;;;3.90;;
56810;SDS011;42691;47.234;27.494;2022-08-19T14:27:49;10.18;;;4.18;;
56810;SDS011;42691;47.234;27.494;2022-08-19T14:30:16;8.48;;;3.20;;
56810;SDS011;42691;47.234;27.494;2022-08-19T14:32:43;8.27;;;3.67;;
56810;SDS011;42691;47.234;27.494;2022-08-19T14:35:09;11.13;;;4.13;;
56810;SDS011;42691;47.234;27.494;2022-08-19T14:37:37;11.70;;;3.03;;
56810;SDS011;42691;47.234;27.494;2022-08-19T14:40:03;8.70;;;3.40;;
56810;SDS011;42691;47.234;27.494;2022-08-19T14:42:29;9.80;;;4.03;;